Time;durP1;ratioP1;P1;durP2;ratioP2;P2;SDS_P1;SDS_P2;PMS_P1;PMS_P2;Temp;Humidity;BMP_temperature;BMP_pressure;BME280_temperature;BME280_humidity;BME280_pressure;Samples;Min_cycle;Max_cycle;Signal;HPM_P1;HPM_P2
2021/12/04 00:02:26;;;;;;;6.35;3.50;;;3.30;99.90;;;;;;4935285;29;20139;-63
2021/12/04 00:04:53;;;;;;;5.57;3.53;;;3.20;99.90;;;;;;4953186;29;20042;-65
2021/12/04 00:07:22;;;;;;;7.30;3.85;;;3.20;99.90;;;;;;4962548;28;20089;-57
2021/12/04 00:09:50;;;;;;;9.05;4.60;;;3.30;99.90;;;;;;4953101;29;20050;-62
2021/12/04 00:12:17;;;;;;;9.38;4.28;;;4.10;99.90;;;;;;4960230;28;20035;-60
2021/12/04 00:14:44;;;;;;;5.13;3.53;;;3.70;99.90;;;;;;4975394;28;20035;-59
2021/12/04 00:17:10;;;;;;;9.20;3.47;;;3.60;99.90;;;;;;4967619;28;20023;-62
2021/12/04 00:19:36;;;;;;;5.80;3.63;;;3.50;99.90;;;;;;4955959;29;20055;-56
2021/12/04 00:22:03;;;;;;;6.05;4.10;;;3.50;99.90;;;;;;4955642;29;20071;-56
2021/12/04 00:24:28;;;;;;;9.77;3.63;;;3.40;99.90;;;;;;4955428;29;20413;-58
2021/12/04 00:26:55;;;;;;;9.90;3.70;;;3.40;99.90;;;;;;4938701;29;20042;-57
2021/12/04 00:29:22;;;;;;;8.18;4.03;;;3.40;99.90;;;;;;4955321;29;20050;-64
2021/12/04 00:31:50;;;;;;;7.97;3.95;;;3.40;99.90;;;;;;4955792;29;20039;-57
2021/12/04 00:34:22;;;;;;;9.90;3.75;;;3.30;99.90;;;;;;4937934;29;20031;-59
2021/12/04 00:50:12;;;;;;;7.35;3.50;;;3.60;99.90;;;;;;4955085;29;20035;-59
2021/12/04 00:52:38;;;;;;;5.13;3.25;;;3.60;99.90;;;;;;4955512;29;20032;-65
2021/12/04 00:55:05;;;;;;;6.90;3.30;;;3.50;99.90;;;;;;4955259;29;20126;-56
2021/12/04 00:57:32;;;;;;;4.43;2.92;;;3.60;99.90;;;;;;4954890;28;20109;-62
2021/12/04 00:59:58;;;;;;;7.57;3.45;;;3.60;99.90;;;;;;4938221;29;20118;-62
2021/12/04 01:02:24;;;;;;;4.75;3.28;;;3.50;99.90;;;;;;4954418;29;20351;-55
2021/12/04 01:04:50;;;;;;;13.55;3.72;;;3.40;99.90;;;;;;4955128;29;20027;-55
2021/12/04 01:07:16;;;;;;;7.25;3.60;;;3.50;99.90;;;;;;4937445;29;20035;-56
2021/12/04 01:09:43;;;;;;;7.22;4.05;;;3.60;99.90;;;;;;4922180;29;20102;-59
2021/12/04 01:12:09;;;;;;;5.57;3.42;;;3.50;99.90;;;;;;4937342;29;20042;-64
2021/12/04 01:14:35;;;;;;;8.20;3.83;;;3.60;99.90;;;;;;4955601;29;20043;-62
2021/12/04 01:17:02;;;;;;;7.05;2.90;;;3.50;99.90;;;;;;4954956;29;20035;-63
2021/12/04 01:19:29;;;;;;;5.38;3.42;;;3.50;99.90;;;;;;4954433;29;20027;-57
2021/12/04 01:21:55;;;;;;;4.57;2.60;;;3.20;99.90;;;;;;4955008;29;20083;-62
2021/12/04 01:24:21;;;;;;;6.68;3.58;;;3.30;99.90;;;;;;4936196;29;20058;-61
2021/12/04 01:26:48;;;;;;;7.32;3.47;;;3.30;99.90;;;;;;4954693;29;20043;-59
2021/12/04 01:29:14;;;;;;;5.13;3.58;;;3.10;99.90;;;;;;4936878;29;20490;-59
2021/12/04 01:31:40;;;;;;;8.55;3.35;;;2.90;99.90;;;;;;4937514;29;20043;-64
2021/12/04 01:34:06;;;;;;;7.70;2.92;;;3.00;99.90;;;;;;4954814;29;20039;-60
2021/12/04 01:36:32;;;;;;;8.60;3.28;;;3.00;99.90;;;;;;4954637;29;20063;-61
2021/12/04 01:38:58;;;;;;;5.65;3.35;;;3.00;99.90;;;;;;4954595;29;20030;-58
2021/12/04 01:41:24;;;;;;;7.60;3.30;;;2.90;99.90;;;;;;4954006;29;20035;-61
2021/12/04 01:43:50;;;;;;;6.63;3.20;;;2.70;99.90;;;;;;4954781;29;20031;-62
2021/12/04 01:46:16;;;;;;;5.47;3.30;;;2.60;99.90;;;;;;4953990;29;20372;-60
2021/12/04 01:48:42;;;;;;;5.63;3.80;;;2.50;99.90;;;;;;4954169;29;20518;-57
2021/12/04 01:51:08;;;;;;;6.18;3.40;;;2.40;99.90;;;;;;4953935;29;20035;-70
2021/12/04 01:53:34;;;;;;;8.68;3.38;;;2.30;99.90;;;;;;4954314;29;20037;-61
2021/12/04 01:56:00;;;;;;;8.35;3.55;;;2.20;99.90;;;;;;4936877;28;20441;-67
2021/12/04 01:58:28;;;;;;;5.03;3.30;;;2.10;99.90;;;;;;4953603;29;20050;-62
2021/12/04 02:00:54;;;;;;;9.32;4.22;;;2.10;99.90;;;;;;4937077;29;20027;-59
2021/12/04 02:03:20;;;;;;;8.02;3.67;;;2.20;99.90;;;;;;4954075;29;20023;-57
2021/12/04 02:05:48;;;;;;;6.55;3.90;;;2.20;99.90;;;;;;4954694;29;20031;-58
2021/12/04 02:08:18;;;;;;;6.95;3.60;;;2.40;99.90;;;;;;4953938;29;20027;-61
2021/12/04 02:10:46;;;;;;;6.78;3.67;;;2.50;99.90;;;;;;4954265;29;20070;-57
2021/12/04 02:13:12;;;;;;;6.85;3.60;;;2.50;99.90;;;;;;4936008;29;20035;-55
2021/12/04 02:15:38;;;;;;;7.10;3.92;;;2.60;99.90;;;;;;4954008;29;20079;-61
2021/12/04 02:18:05;;;;;;;6.22;4.18;;;2.50;99.90;;;;;;4954256;29;20042;-56
2021/12/04 02:20:33;;;;;;;4.88;3.63;;;2.40;99.90;;;;;;4953576;29;20025;-64
2021/12/04 02:22:59;;;;;;;8.52;4.40;;;2.50;99.90;;;;;;4953396;29;20035;-61
2021/12/04 02:25:24;;;;;;;5.78;3.72;;;2.40;99.90;;;;;;4953308;29;20565;-62
2021/12/04 02:27:51;;;;;;;9.48;3.85;;;2.40;99.90;;;;;;4961926;28;20027;-63
2021/12/04 02:30:22;;;;;;;6.45;3.70;;;2.30;99.90;;;;;;4955019;28;20409;-57
2021/12/04 02:32:48;;;;;;;6.93;3.53;;;2.40;99.90;;;;;;4972416;28;20023;-53
2021/12/04 02:35:15;;;;;;;11.48;4.60;;;2.40;99.90;;;;;;4954897;28;20035;-63
2021/12/04 02:37:41;;;;;;;9.82;3.80;;;2.30;99.90;;;;;;4955487;28;20027;-61
2021/12/04 02:40:10;;;;;;;6.32;4.50;;;2.30;99.90;;;;;;4961278;28;20110;-59
2021/12/04 02:42:36;;;;;;;8.27;5.03;;;2.50;99.90;;;;;;4952227;28;20390;-63
2021/12/04 02:45:06;;;;;;;7.30;3.63;;;2.40;99.90;;;;;;4935963;29;20027;-61
2021/12/04 02:47:31;;;;;;;6.50;3.70;;;2.40;99.90;;;;;;4952409;29;20042;-62
2021/12/04 02:49:57;;;;;;;8.15;5.00;;;2.40;99.90;;;;;;4953259;29;20027;-61
2021/12/04 02:52:24;;;;;;;8.00;4.38;;;2.50;99.90;;;;;;4952498;29;20035;-57
2021/12/04 02:54:51;;;;;;;7.18;4.03;;;2.50;99.90;;;;;;4952981;29;20041;-55
2021/12/04 02:57:18;;;;;;;8.02;4.53;;;2.40;99.90;;;;;;4952067;28;20051;-65
2021/12/04 02:59:44;;;;;;;7.07;4.47;;;2.40;99.90;;;;;;4953370;29;20046;-59
2021/12/04 03:02:20;;;;;;;7.18;3.78;;;2.30;99.90;;;;;;4952424;29;20031;-60
2021/12/04 03:04:57;;;;;;;7.75;4.25;;;2.40;99.90;;;;;;4953537;29;20055;-65
2021/12/04 03:07:23;;;;;;;9.30;5.20;;;2.40;99.90;;;;;;4952686;29;20040;-64
2021/12/04 03:09:49;;;;;;;7.45;4.72;;;2.20;99.90;;;;;;4953154;29;20446;-57
2021/12/04 03:12:18;;;;;;;10.13;4.30;;;2.10;99.90;;;;;;4953133;29;20074;-61
2021/12/04 03:14:44;;;;;;;6.78;4.20;;;2.10;99.90;;;;;;4953441;29;20065;-55
2021/12/04 03:17:10;;;;;;;8.48;4.72;;;2.20;99.90;;;;;;4953349;29;20424;-60
2021/12/04 03:19:38;;;;;;;6.28;4.55;;;2.20;99.90;;;;;;4935373;29;20027;-54
2021/12/04 03:22:05;;;;;;;7.47;4.53;;;2.10;99.90;;;;;;4953126;29;20030;-61
2021/12/04 03:24:32;;;;;;;9.90;5.13;;;2.10;99.90;;;;;;4952443;29;20035;-63
2021/12/04 03:26:57;;;;;;;6.25;4.70;;;1.80;99.90;;;;;;4953204;29;20133;-57
2021/12/04 03:29:26;;;;;;;7.95;4.75;;;1.90;99.90;;;;;;4952910;29;20035;-59
2021/12/04 03:42:49;;;;;;;5.28;3.83;;;2.00;99.90;;;;;;4920358;29;20043;-64
2021/12/04 03:45:15;;;;;;;6.18;4.30;;;2.00;99.90;;;;;;4952318;29;20206;-62
2021/12/04 03:47:45;;;;;;;7.75;4.47;;;2.10;99.90;;;;;;4954662;28;20097;-60
2021/12/04 03:50:11;;;;;;;5.82;4.25;;;2.10;99.90;;;;;;4956657;29;20058;-55
2021/12/04 03:52:37;;;;;;;5.68;4.32;;;1.90;99.90;;;;;;4955780;29;20393;-57
2021/12/04 03:55:05;;;;;;;9.52;5.25;;;1.90;99.90;;;;;;4939373;29;20035;-63
2021/12/04 03:57:31;;;;;;;5.95;4.43;;;1.90;99.90;;;;;;4956013;28;20055;-65
2021/12/04 03:59:59;;;;;;;5.95;4.03;;;1.90;99.90;;;;;;4956738;29;20135;-60
2021/12/04 04:02:26;;;;;;;8.73;4.43;;;1.90;99.90;;;;;;4938823;29;20090;-59
2021/12/04 04:04:52;;;;;;;5.75;3.85;;;2.00;99.90;;;;;;4955118;29;20038;-63
2021/12/04 04:07:18;;;;;;;4.82;3.78;;;1.90;99.90;;;;;;4956015;29;20081;-60
2021/12/04 04:09:43;;;;;;;5.70;4.38;;;2.00;99.90;;;;;;4956240;29;20106;-59
2021/12/04 04:12:09;;;;;;;5.97;4.63;;;2.00;99.90;;;;;;4956031;29;20110;-64
2021/12/04 04:14:35;;;;;;;7.13;4.22;;;2.00;99.90;;;;;;4955741;29;20054;-61
2021/12/04 04:17:01;;;;;;;7.00;3.80;;;2.00;99.90;;;;;;4956048;29;20123;-61
2021/12/04 04:19:28;;;;;;;6.13;4.65;;;2.00;99.90;;;;;;4938492;29;20039;-58
2021/12/04 04:21:56;;;;;;;6.75;4.43;;;2.00;99.90;;;;;;4939264;29;20365;-59
2021/12/04 04:24:24;;;;;;;6.25;3.97;;;2.00;99.90;;;;;;4955786;29;20222;-60
2021/12/04 04:26:50;;;;;;;5.75;4.50;;;2.10;99.90;;;;;;4939126;29;20429;-63
2021/12/04 04:29:16;;;;;;;5.63;4.65;;;2.10;99.90;;;;;;4956162;29;20031;-72
2021/12/04 04:31:46;;;;;;;6.82;4.13;;;2.00;99.90;;;;;;4955712;29;20042;-55
2021/12/04 04:34:19;;;;;;;6.28;4.47;;;2.00;99.90;;;;;;4955726;29;20480;-60
2021/12/04 04:36:57;;;;;;;7.47;4.75;;;2.00;99.90;;;;;;4938701;29;20027;-60
2021/12/04 04:39:54;;;;;;;6.22;4.30;;;2.00;99.90;;;;;;4955420;29;20057;-61
2021/12/04 05:12:35;;;;;;;7.80;4.30;;;2.10;99.90;;;;;;4955276;29;20152;-61
2021/12/04 05:15:09;;;;;;;6.43;4.25;;;2.10;99.90;;;;;;4955430;29;20061;-55
2021/12/04 05:20:19;;;;;;;6.70;4.57;;;2.10;99.90;;;;;;4955115;29;20028;-64
2021/12/04 05:22:45;;;;;;;6.72;4.95;;;2.00;99.90;;;;;;4953845;29;20035;-60
2021/12/04 05:25:12;;;;;;;6.75;4.55;;;2.10;99.90;;;;;;4954906;29;20102;-61
2021/12/04 05:27:37;;;;;;;7.13;5.03;;;2.10;99.90;;;;;;4954544;29;20051;-53
2021/12/04 05:30:05;;;;;;;7.38;5.38;;;2.20;99.90;;;;;;4954926;29;20073;-57
2021/12/04 05:32:31;;;;;;;7.28;5.32;;;2.40;99.90;;;;;;4952906;29;20424;-63
2021/12/04 05:34:57;;;;;;;9.40;5.00;;;2.30;99.90;;;;;;4954513;29;20385;-65
2021/12/04 05:37:23;;;;;;;9.20;5.50;;;2.30;99.90;;;;;;4953990;29;20028;-60
2021/12/04 05:39:48;;;;;;;6.65;5.10;;;2.30;99.90;;;;;;4955053;29;20086;-59
2021/12/04 05:42:14;;;;;;;6.60;4.63;;;2.40;99.90;;;;;;4954754;29;20051;-54
2021/12/04 05:44:41;;;;;;;7.25;5.22;;;2.30;99.90;;;;;;4967668;28;20751;-62
2021/12/04 05:49:51;;;;;;;8.07;5.10;;;2.50;99.90;;;;;;4973324;28;20026;-59
2021/12/04 05:52:22;;;;;;;7.75;5.32;;;2.30;99.90;;;;;;4956524;28;20468;-61
2021/12/04 05:55:07;;;;;;;8.07;5.18;;;2.20;99.90;;;;;;4973829;28;20027;-61
2021/12/04 05:57:33;;;;;;;8.98;5.25;;;2.20;99.90;;;;;;4972727;28;20046;-60
2021/12/04 05:59:58;;;;;;;9.40;5.65;;;2.20;99.90;;;;;;4973469;28;20031;-57
2021/12/04 06:02:24;;;;;;;7.50;5.28;;;2.20;99.90;;;;;;4973208;28;20049;-60
2021/12/04 06:04:50;;;;;;;6.72;5.10;;;2.30;99.90;;;;;;4973640;28;20370;-61
2021/12/04 06:07:15;;;;;;;8.05;5.25;;;2.10;99.90;;;;;;4973210;28;20065;-59
2021/12/04 06:09:41;;;;;;;8.95;5.25;;;2.00;99.90;;;;;;4972477;28;20323;-55
2021/12/04 06:12:08;;;;;;;8.25;5.07;;;2.20;99.90;;;;;;4973130;28;20095;-60
2021/12/04 06:14:34;;;;;;;6.55;5.13;;;2.40;99.90;;;;;;4955400;28;20082;-59
2021/12/04 06:16:59;;;;;;;6.97;5.70;;;2.50;99.90;;;;;;4973398;28;20361;-65
2021/12/04 06:24:53;;;;;;;15.75;5.97;;;2.60;99.90;;;;;;4973021;28;20054;-60
2021/12/04 06:27:19;;;;;;;7.95;5.32;;;2.60;99.90;;;;;;4973313;28;20381;-65
2021/12/04 06:29:44;;;;;;;9.80;5.60;;;2.60;99.90;;;;;;4955068;28;20469;-59
2021/12/04 06:32:10;;;;;;;7.10;4.85;;;2.60;99.90;;;;;;4972641;28;20026;-62
2021/12/04 06:34:36;;;;;;;7.90;5.80;;;2.70;99.90;;;;;;4972240;28;20035;-66
2021/12/04 06:37:02;;;;;;;7.13;6.35;;;2.80;99.90;;;;;;4973088;28;20034;-65
2021/12/04 06:39:27;;;;;;;7.22;5.57;;;2.80;99.90;;;;;;4972196;28;20023;-59
2021/12/04 06:41:53;;;;;;;7.10;5.30;;;2.90;99.90;;;;;;4967969;28;20081;-59
2021/12/04 06:44:19;;;;;;;6.05;4.82;;;3.00;99.90;;;;;;4955452;28;20054;-59
2021/12/04 06:46:44;;;;;;;7.95;5.10;;;2.90;99.90;;;;;;4954689;28;20027;-60
2021/12/04 06:49:20;;;;;;;6.45;4.50;;;2.80;99.90;;;;;;4972616;28;20061;-61
2021/12/04 06:51:51;;;;;;;7.13;5.40;;;2.90;99.90;;;;;;4954845;28;20042;-60
2021/12/04 06:54:23;;;;;;;7.95;4.95;;;3.00;99.90;;;;;;4955254;28;20039;-62
2021/12/04 06:56:48;;;;;;;8.25;5.93;;;3.10;99.90;;;;;;4967535;28;20057;-57
2021/12/04 06:59:25;;;;;;;10.60;7.32;;;3.20;99.90;;;;;;4992011;28;20042;-59
2021/12/04 07:01:51;;;;;;;8.88;6.55;;;3.20;99.90;;;;;;4992179;28;20149;-65
2021/12/04 07:04:18;;;;;;;8.88;6.90;;;3.10;99.90;;;;;;4990488;28;20489;-65
2021/12/04 07:06:45;;;;;;;9.07;6.32;;;3.20;99.90;;;;;;4991426;28;20022;-63
2021/12/04 07:09:11;;;;;;;8.57;6.80;;;3.20;99.90;;;;;;4992033;28;20360;-59
2021/12/04 07:11:37;;;;;;;17.55;7.43;;;3.10;99.90;;;;;;4991111;28;20035;-59
2021/12/04 07:14:03;;;;;;;13.68;7.97;;;3.20;99.90;;;;;;4991831;28;20476;-56
2021/12/04 07:16:29;;;;;;;9.45;6.72;;;3.20;99.90;;;;;;4991229;28;20054;-59
2021/12/04 07:18:54;;;;;;;11.27;7.30;;;3.20;99.90;;;;;;4991983;28;20054;-57
2021/12/04 07:21:20;;;;;;;11.63;7.35;;;3.20;99.90;;;;;;4991705;28;20022;-59
2021/12/04 07:23:46;;;;;;;11.98;7.68;;;3.20;99.90;;;;;;4994511;28;20373;-56
2021/12/04 07:26:12;;;;;;;10.60;7.65;;;3.20;99.90;;;;;;4995508;28;20026;-54
2021/12/04 07:28:37;;;;;;;8.77;6.75;;;3.10;99.90;;;;;;4994792;28;20066;-57
2021/12/04 07:31:04;;;;;;;10.95;7.15;;;3.10;99.90;;;;;;4995474;28;20081;-62
2021/12/04 07:33:30;;;;;;;8.85;6.78;;;3.10;99.90;;;;;;4995084;28;20101;-60
2021/12/04 07:35:57;;;;;;;13.00;7.63;;;3.20;99.90;;;;;;4994100;28;20031;-63
2021/12/04 07:38:24;;;;;;;10.02;7.18;;;3.10;99.90;;;;;;4995503;28;20030;-55
2021/12/04 07:40:50;;;;;;;13.07;7.30;;;3.10;99.90;;;;;;4993506;28;20041;-59
2021/12/04 07:43:16;;;;;;;10.18;6.75;;;3.10;99.90;;;;;;4995171;28;20034;-60
2021/12/04 07:45:41;;;;;;;10.48;7.43;;;3.00;99.90;;;;;;4994973;28;20026;-61
2021/12/04 07:48:07;;;;;;;10.55;7.03;;;3.00;99.90;;;;;;4994773;28;20026;-57
2021/12/04 07:50:34;;;;;;;10.45;7.32;;;3.00;99.90;;;;;;4994306;28;20026;-59
2021/12/04 07:53:00;;;;;;;10.52;7.68;;;3.00;99.90;;;;;;4995065;28;20054;-63
2021/12/04 07:55:26;;;;;;;11.25;7.03;;;3.00;99.90;;;;;;4994836;28;20077;-64
2021/12/04 07:57:52;;;;;;;10.48;6.80;;;3.00;99.90;;;;;;4992930;28;20054;-56
2021/12/04 08:00:20;;;;;;;10.63;7.07;;;3.10;99.90;;;;;;4993608;28;20452;-63
2021/12/04 08:02:46;;;;;;;10.27;7.65;;;2.90;99.90;;;;;;4994201;28;20125;-61
2021/12/04 08:05:12;;;;;;;11.18;7.20;;;2.80;99.90;;;;;;4994817;28;20054;-60
2021/12/04 08:07:38;;;;;;;8.75;6.53;;;2.90;99.90;;;;;;4994297;28;20026;-54
2021/12/04 08:10:06;;;;;;;10.38;7.45;;;2.90;99.90;;;;;;4993009;28;20067;-60
2021/12/04 08:12:32;;;;;;;12.55;7.82;;;3.00;99.90;;;;;;4992413;28;20030;-62
2021/12/04 08:14:57;;;;;;;10.27;6.40;;;3.10;99.90;;;;;;4993547;28;20117;-56
2021/12/04 08:17:25;;;;;;;10.30;7.18;;;2.90;99.90;;;;;;4993237;28;20124;-62
2021/12/04 08:19:51;;;;;;;10.15;7.05;;;2.80;99.90;;;;;;4994123;28;20042;-60
2021/12/04 08:22:16;;;;;;;10.00;6.32;;;2.90;99.90;;;;;;4994371;28;20037;-60
2021/12/04 08:24:44;;;;;;;11.25;6.97;;;3.00;99.90;;;;;;4992199;28;20027;-61
2021/12/04 08:27:10;;;;;;;11.15;7.13;;;3.10;99.90;;;;;;4994809;28;20456;-63
2021/12/04 08:29:36;;;;;;;10.70;6.20;;;2.80;99.90;;;;;;4993750;28;20053;-56
2021/12/04 08:32:02;;;;;;;9.43;6.97;;;2.80;99.90;;;;;;4994364;28;20050;-62
2021/12/04 08:34:28;;;;;;;8.57;6.47;;;2.90;99.90;;;;;;4992800;28;20062;-60
2021/12/04 08:36:54;;;;;;;12.50;6.40;;;3.10;99.90;;;;;;4992425;28;20065;-60
2021/12/04 08:39:20;;;;;;;10.95;5.75;;;3.20;99.90;;;;;;4994210;28;20041;-64
2021/12/04 08:41:47;;;;;;;12.27;7.07;;;3.10;99.90;;;;;;4993453;28;20030;-59
2021/12/04 08:44:13;;;;;;;10.38;6.32;;;2.90;99.90;;;;;;4994234;28;20113;-60
2021/12/04 08:46:39;;;;;;;8.82;6.25;;;3.10;99.90;;;;;;4993527;28;20034;-60
2021/12/04 08:49:06;;;;;;;9.50;6.13;;;3.10;99.90;;;;;;4994390;28;20518;-58
2021/12/04 08:51:33;;;;;;;10.00;6.63;;;3.10;99.90;;;;;;4993457;28;20030;-74
2021/12/04 08:54:00;;;;;;;8.75;5.97;;;3.10;99.90;;;;;;4992221;28;20033;-66
2021/12/04 08:56:25;;;;;;;9.02;6.43;;;2.90;99.90;;;;;;4990522;28;20054;-61
2021/12/04 08:58:51;;;;;;;9.23;6.20;;;3.10;99.90;;;;;;4991835;28;20686;-60
2021/12/04 09:01:25;;;;;;;14.35;7.70;;;3.00;99.90;;;;;;4990750;28;20034;-57
2021/12/04 09:03:57;;;;;;;8.50;6.30;;;3.00;99.90;;;;;;4991781;28;20375;-62
2021/12/04 09:06:23;;;;;;;10.10;6.30;;;2.90;99.90;;;;;;4993457;28;20485;-60
2021/12/04 09:08:50;;;;;;;14.85;6.35;;;3.00;99.90;;;;;;4992324;28;20027;-62
2021/12/04 09:11:21;;;;;;;9.23;6.65;;;3.10;99.90;;;;;;4993028;28;20093;-61
2021/12/04 09:13:48;;;;;;;10.63;6.45;;;3.20;99.90;;;;;;4992046;28;20023;-60
2021/12/04 09:16:16;;;;;;;9.15;5.97;;;3.10;99.90;;;;;;4992777;28;20030;-62
2021/12/04 09:18:42;;;;;;;11.07;6.68;;;3.20;99.90;;;;;;4991071;28;20022;-61
2021/12/04 09:21:10;;;;;;;9.60;7.05;;;3.30;99.90;;;;;;4992490;28;20081;-61
2021/12/04 09:23:38;;;;;;;9.00;5.88;;;3.30;99.90;;;;;;4992394;28;20463;-62
2021/12/04 09:26:07;;;;;;;10.10;6.93;;;3.40;99.90;;;;;;4992862;28;20041;-60
2021/12/04 09:28:42;;;;;;;8.52;6.05;;;3.40;99.90;;;;;;4990866;28;20035;-78
2021/12/04 09:31:25;;;;;;;9.55;7.20;;;3.30;99.90;;;;;;4992436;28;20093;-65
2021/12/04 10:12:37;;;;;;;12.75;6.47;;;3.70;99.90;;;;;;4963612;28;20041;-66
2021/12/04 10:23:34;;;;;;;9.93;6.20;;;3.90;99.90;;;;;;4971717;28;20039;-61
2021/12/04 10:34:30;;;;;;;11.40;7.30;;;4.10;99.90;;;;;;4972032;28;20085;-56
2021/12/04 10:37:12;;;;;;;8.55;6.03;;;4.00;99.90;;;;;;4970982;28;20484;-68
2021/12/04 10:39:39;;;;;;;10.48;6.85;;;4.20;99.90;;;;;;4971263;28;20066;-60
2021/12/04 10:42:11;;;;;;;9.30;6.85;;;4.00;99.90;;;;;;4954216;28;20546;-59
2021/12/04 10:44:44;;;;;;;11.10;7.60;;;3.80;99.90;;;;;;4971228;28;20384;-59
2021/12/04 10:47:12;;;;;;;9.85;6.43;;;3.90;99.90;;;;;;4954277;28;20105;-61
2021/12/04 10:50:10;;;;;;;10.48;7.68;;;3.70;99.90;;;;;;4970669;28;20023;-62
2021/12/04 10:53:14;;;;;;;10.07;6.75;;;3.90;99.90;;;;;;4970674;28;20129;-63
2021/12/04 11:04:04;;;;;;;10.75;7.60;;;4.40;99.90;;;;;;4980992;28;20616;-62
2021/12/04 11:06:57;;;;;;;12.20;7.90;;;4.60;99.90;;;;;;4971907;28;20069;-64
2021/12/04 11:26:09;;;;;;;23.73;13.82;;;4.50;99.90;;;;;;4989671;28;20042;-63
2021/12/04 11:42:40;;;;;;;18.83;11.02;;;4.60;99.90;;;;;;4990352;28;20085;-61
2021/12/04 11:45:16;;;;;;;14.18;10.50;;;4.60;99.90;;;;;;4992526;28;20030;-61
2021/12/04 11:47:45;;;;;;;13.02;10.18;;;4.80;99.90;;;;;;4965253;28;20030;-63
2021/12/04 11:50:24;;;;;;;12.63;8.88;;;4.80;99.90;;;;;;4956464;28;20121;-62
2021/12/04 11:52:57;;;;;;;14.05;8.52;;;4.70;99.90;;;;;;4989865;28;20126;-62
2021/12/04 11:55:26;;;;;;;11.40;7.45;;;4.90;99.90;;;;;;4990223;28;20034;-62
2021/12/04 11:57:53;;;;;;;13.63;8.75;;;5.00;99.90;;;;;;4970340;28;20573;-60
2021/12/04 12:00:33;;;;;;;14.35;9.68;;;5.00;99.90;;;;;;4953227;28;20370;-62
2021/12/04 12:03:17;;;;;;;15.52;8.68;;;5.00;99.90;;;;;;4970620;28;20045;-61
2021/12/04 12:05:50;;;;;;;12.40;7.38;;;4.90;99.90;;;;;;4969379;28;20046;-62
2021/12/04 12:08:31;;;;;;;11.35;8.00;;;4.80;99.90;;;;;;4934299;29;20122;-64
2021/12/04 12:11:06;;;;;;;10.52;8.05;;;4.90;99.90;;;;;;4969146;28;20161;-63
2021/12/04 12:13:35;;;;;;;15.55;9.48;;;4.90;99.90;;;;;;4967818;28;20039;-62
2021/12/04 12:16:12;;;;;;;12.07;9.00;;;4.80;99.90;;;;;;4954608;29;20418;-59
2021/12/04 12:19:12;;;;;;;11.50;8.52;;;4.80;99.90;;;;;;4949262;28;20030;-63
2021/12/04 12:22:18;;;;;;;11.35;8.65;;;4.90;99.90;;;;;;4968662;28;20467;-58
2021/12/04 12:38:33;;;;;;;11.77;8.63;;;5.10;99.90;;;;;;4973320;28;20037;-63
2021/12/04 12:41:03;;;;;;;11.63;9.05;;;5.10;99.90;;;;;;4937588;28;20480;-60
2021/12/04 12:43:46;;;;;;;13.38;8.98;;;5.10;99.90;;;;;;4961674;28;20027;-59
2021/12/04 12:46:13;;;;;;;12.23;8.85;;;5.00;99.90;;;;;;4948955;28;20027;-61
2021/12/04 12:48:52;;;;;;;11.07;7.65;;;5.00;99.90;;;;;;4971157;28;20042;-71
2021/12/04 12:51:36;;;;;;;11.32;8.32;;;5.00;99.90;;;;;;4970409;28;20052;-65
2021/12/04 12:54:06;;;;;;;12.98;9.10;;;5.00;99.90;;;;;;4954304;28;20126;-66
2021/12/04 12:56:34;;;;;;;11.85;9.00;;;4.80;99.90;;;;;;4959621;28;20149;-62
2021/12/04 13:13:36;;;;;;;11.77;8.32;;;7.50;99.90;;;;;;4972576;28;20056;-63
2021/12/04 13:16:21;;;;;;;12.05;7.97;;;6.80;99.90;;;;;;4951334;29;20129;-61
2021/12/04 13:18:57;;;;;;;15.20;8.93;;;6.40;99.90;;;;;;4950676;29;20028;-64
2021/12/04 13:21:24;;;;;;;10.48;8.43;;;6.10;99.90;;;;;;4949383;29;20373;-59
2021/12/04 13:23:54;;;;;;;12.75;9.25;;;5.90;99.90;;;;;;4947476;29;20129;-64
2021/12/04 13:26:29;;;;;;;20.50;10.85;;;5.80;99.90;;;;;;4931054;29;20480;-58
2021/12/04 13:28:56;;;;;;;19.88;11.90;;;5.60;99.90;;;;;;4933972;29;20067;-59
2021/12/04 13:31:21;;;;;;;19.38;13.35;;;5.50;99.90;;;;;;4950771;29;20047;-62
2021/12/04 13:33:50;;;;;;;18.63;11.70;;;5.50;99.90;;;;;;4930556;29;20452;-60
2021/12/04 13:36:19;;;;;;;20.10;11.40;;;5.40;99.90;;;;;;4950665;29;20043;-61
2021/12/04 13:38:45;;;;;;;18.77;11.95;;;5.30;99.90;;;;;;4950047;28;20552;-63
2021/12/04 13:41:12;;;;;;;16.70;11.70;;;5.20;99.90;;;;;;4949702;29;20106;-66
2021/12/04 13:43:39;;;;;;;19.25;12.07;;;5.20;99.90;;;;;;4949545;29;20027;-61
2021/12/04 13:46:05;;;;;;;15.60;10.48;;;5.20;99.90;;;;;;4952777;28;20037;-62
2021/12/04 13:48:34;;;;;;;20.33;12.00;;;5.10;99.90;;;;;;4954444;28;20031;-62
2021/12/04 13:51:00;;;;;;;18.73;11.88;;;5.00;99.90;;;;;;4936592;28;20035;-66
2021/12/04 13:53:30;;;;;;;18.38;12.45;;;5.10;99.90;;;;;;4972065;28;20065;-65
2021/12/04 13:56:22;;;;;;;17.67;11.02;;;5.00;99.90;;;;;;4954001;28;20512;-60
2021/12/04 13:58:52;;;;;;;;;;;5.00;99.90;;;;;;4941090;29;20042;-62
2021/12/04 14:01:19;;;;;;;17.80;10.48;;;5.00;99.90;;;;;;4947400;28;19945;-62
2021/12/04 14:03:47;;;;;;;15.20;10.30;;;5.00;99.90;;;;;;4970897;28;20034;-64
2021/12/04 14:06:16;;;;;;;18.38;11.55;;;4.90;99.90;;;;;;4952457;29;20108;-63
2021/12/04 14:08:43;;;;;;;18.60;10.32;;;5.00;99.90;;;;;;4951301;28;20405;-65
2021/12/04 14:11:09;;;;;;;16.20;10.32;;;5.00;99.90;;;;;;4935248;29;20027;-63
2021/12/04 14:13:38;;;;;;;17.83;10.63;;;5.00;99.90;;;;;;4935538;29;20092;-65
2021/12/04 14:16:05;;;;;;;15.70;11.00;;;4.90;99.90;;;;;;4953385;29;20031;-61
2021/12/04 14:18:31;;;;;;;16.70;10.05;;;4.90;99.90;;;;;;4935795;29;20031;-61
2021/12/04 14:21:02;;;;;;;15.32;9.18;;;4.90;99.90;;;;;;4935667;29;20024;-62
2021/12/04 14:23:34;;;;;;;15.80;10.02;;;4.80;99.90;;;;;;4936241;29;20035;-62
2021/12/04 14:26:03;;;;;;;11.60;7.93;;;4.80;99.90;;;;;;4953321;29;20135;-62
2021/12/04 14:28:37;;;;;;;14.38;8.10;;;4.80;99.90;;;;;;4936341;29;20051;-63
2021/12/04 14:31:04;;;;;;;13.57;8.02;;;4.80;99.90;;;;;;4953257;28;20350;-62
2021/12/04 14:33:30;;;;;;;10.90;7.18;;;4.80;99.90;;;;;;4935476;29;20039;-60
2021/12/04 14:35:56;;;;;;;12.10;7.60;;;4.90;99.90;;;;;;4952632;29;20037;-61
2021/12/04 14:38:25;;;;;;;12.32;7.80;;;4.90;99.90;;;;;;4953034;29;20034;-62
2021/12/04 14:41:00;;;;;;;11.98;7.97;;;4.90;99.90;;;;;;4936845;28;20187;-67
2021/12/04 14:43:31;;;;;;;10.85;6.80;;;4.90;99.90;;;;;;4949487;29;20043;-62
2021/12/04 14:45:59;;;;;;;10.82;7.25;;;4.90;99.90;;;;;;4934140;29;20457;-67
2021/12/04 14:48:45;;;;;;;10.77;6.38;;;4.90;99.90;;;;;;4952867;29;20027;-62
2021/12/04 14:51:14;;;;;;;9.00;6.32;;;4.90;99.90;;;;;;4952894;29;20063;-60
2021/12/04 14:53:51;;;;;;;11.82;6.70;;;4.90;99.90;;;;;;4951864;29;20459;-62
2021/12/04 14:56:19;;;;;;;7.75;6.10;;;5.00;99.90;;;;;;4939547;28;20054;-62
2021/12/04 14:58:45;;;;;;;9.25;6.35;;;5.00;99.90;;;;;;4971117;28;20041;-62
2021/12/04 15:01:13;;;;;;;9.43;5.93;;;5.00;99.90;;;;;;4972345;28;20039;-63
2021/12/04 15:03:58;;;;;;;8.10;5.68;;;5.00;99.90;;;;;;4971557;28;20031;-61
2021/12/04 15:06:25;;;;;;;7.82;5.60;;;5.00;99.90;;;;;;4970472;28;20031;-61
2021/12/04 15:08:58;;;;;;;9.05;6.05;;;4.90;99.90;;;;;;4971458;28;20019;-62
2021/12/04 15:11:29;;;;;;;8.30;6.20;;;4.80;99.90;;;;;;4972146;28;20046;-62
2021/12/04 15:14:02;;;;;;;6.82;5.43;;;4.90;99.90;;;;;;4970493;28;20039;-62
2021/12/04 15:16:39;;;;;;;7.75;5.18;;;4.90;99.90;;;;;;4971516;28;20026;-60
2021/12/04 15:19:13;;;;;;;6.10;4.47;;;4.90;99.90;;;;;;4975716;28;20526;-63
2021/12/04 15:21:45;;;;;;;7.28;5.05;;;4.80;99.90;;;;;;4972743;28;20515;-63
2021/12/04 15:24:23;;;;;;;7.75;4.95;;;4.80;99.90;;;;;;4972614;28;20070;-62
2021/12/04 15:26:51;;;;;;;9.30;5.68;;;4.90;99.90;;;;;;4976985;28;20470;-60
2021/12/04 15:29:23;;;;;;;7.95;5.20;;;4.80;99.90;;;;;;4971255;28;20031;-62
2021/12/04 15:31:51;;;;;;;10.27;6.22;;;4.90;99.90;;;;;;4970410;28;20031;-62
2021/12/04 15:34:40;;;;;;;9.27;6.47;;;4.80;99.90;;;;;;4969833;28;20137;-62
2021/12/04 15:37:06;;;;;;;10.43;7.38;;;4.80;99.90;;;;;;4985871;28;20038;-61
2021/12/04 15:39:46;;;;;;;9.63;6.90;;;4.80;99.90;;;;;;4969656;28;20031;-61
2021/12/04 15:55:33;;;;;;;13.10;8.40;;;4.80;99.90;;;;;;4972537;28;20057;-67
2021/12/04 15:58:05;;;;;;;13.00;7.57;;;4.70;99.90;;;;;;4936981;28;20296;-63
2021/12/04 16:00:34;;;;;;;11.35;7.00;;;4.80;99.90;;;;;;4934114;29;20374;-62
2021/12/04 16:03:01;;;;;;;11.48;7.38;;;4.90;99.90;;;;;;4933232;29;20044;-59
2021/12/04 16:05:31;;;;;;;10.77;7.28;;;4.90;99.90;;;;;;4933443;29;20039;-62
2021/12/04 16:08:08;;;;;;;9.85;5.68;;;4.90;99.90;;;;;;4933386;29;20083;-64
2021/12/04 16:10:37;;;;;;;9.98;7.05;;;4.90;99.90;;;;;;4933911;29;20032;-61
2021/12/04 16:13:05;;;;;;;10.25;7.05;;;4.90;99.90;;;;;;4933115;29;20043;-61
2021/12/04 16:15:31;;;;;;;9.82;6.43;;;4.90;99.90;;;;;;4933829;29;20063;-60
2021/12/04 16:17:58;;;;;;;8.95;6.15;;;5.00;99.90;;;;;;4933178;29;20032;-62
2021/12/04 16:20:24;;;;;;;8.02;5.95;;;4.90;99.90;;;;;;4951433;29;20043;-67
2021/12/04 16:22:52;;;;;;;9.02;6.38;;;4.90;99.90;;;;;;4954641;29;20046;-60
2021/12/04 16:25:24;;;;;;;10.73;6.15;;;5.10;99.90;;;;;;4938143;29;20074;-61